Flight Track Log - Related Links

Times and Time Zones

All times are in EDT time to prevent confusion due to time zone crossing. See the UPS1275 flight status page for this flight to view local times or setup timezone preferences in your user account.

Time Position Orientation Groundspeed Altitude Reporting Facility
EDT Latitude Longitude Course Direction KTS MPH feet Rate Location/Type
Tue 10:14:12 PM 35.8430 -78.8370 222° Southwest 220 253 3,900  Level FlightAware ADS-B
Tue 10:14:42 PM 35.8280 -78.8690 240° Southwest 234 269 6,000 4,050 Climbing FlightAware ADS-B
Tue 10:14:52 PM 35.8270 -78.8830 265° West 246 283 6,600 4,350 Climbing FlightAware ADS-B
Tue 10:15:22 PM 35.8270 -78.9270 270° West 252 290 8,900 4,029 Climbing FlightAware ADS-B
Tue 10:16:02 PM 35.8300 -78.9890 273° West 286 329 11,300 2,682 Climbing FlightAware ADS-B
Tue 10:16:47 PM 35.8320 -79.0670 272° West 355 409 12,700 2,480 Climbing FlightAware ADS-B
Tue 10:17:17 PM 35.8330 -79.1270 271° West 372 428 14,400 2,800 Climbing FlightAware ADS-B
Tue 10:18:17 PM 35.8340 -79.2520 271° West 371 427 16,900 3,060 Climbing FlightAware ADS-B
Tue 10:18:57 PM 35.8350 -79.3400 271° West 381 438 19,500 1,733 Climbing FlightAware ADS-B
Tue 10:19:47 PM 35.8350 -79.4320 270° West 381 438 19,500  Level FlightAware ADS-B
Tue 10:20:27 PM 35.8350 -79.5060 270° West 381 438 19,500  Level FlightAware ADS-B
Tue 10:21:07 PM 35.8350 -79.5800 270° West 381 438 19,500  Level FlightAware ADS-B
Tue 10:21:47 PM 35.8350 -79.6540 270° West 381 438 19,500  Level FlightAware ADS-B
Tue 10:22:27 PM 35.8350 -79.7280 270° West 381 438 19,500 5,556 Level FlightAware ADS-B
Tue 10:23:08 PM 35.7519 -79.9369 270° West 424 488 27,000 5,762 Climbing Atlanta Center
Tue 10:24:08 PM 35.7942 -80.0781 290° West 413 475 29,200 2,750 Climbing Atlanta Center
Tue 10:25:08 PM 35.8333 -80.1992 292° West 427 491 32,500 2,800 Climbing Atlanta Center
Tue 10:26:08 PM 35.8839 -80.3456 293° West 427 491 34,800 1,750 Climbing Atlanta Center
Tue 10:27:08 PM 35.9253 -80.4769 291° West 421 484 36,000 600 Climbing Atlanta Center
Tue 10:28:08 PM 35.9667 -80.6086 291° West 416 479 36,000  Level Atlanta Center
Tue 10:29:08 PM 36.0097 -80.7428 292° West 421 484 36,000  Level Atlanta Center
Tue 10:30:08 PM 36.0550 -80.8744 293° West 426 490 36,000  Level Atlanta Center
Tue 10:31:08 PM 36.1061 -80.9983 297° West 421 484 36,000  Level Atlanta Center
Tue 10:32:08 PM 36.1614 -81.1250 298° West 416 479 36,000  Level Atlanta Center
Tue 10:38:12 PM 36.4788 -81.9037 298° West 418 481 36,000  Level FlightAware ADS-B
Tue 10:38:43 PM 36.5061 -81.9723 296° West 416 479 36,000  Level FlightAware ADS-B
Tue 10:39:16 PM 36.5347 -82.0427 297° West 415 478 36,000  Level FlightAware ADS-B
Tue 10:39:47 PM 36.5612 -82.1088 297° West 415 478 36,000  Level FlightAware ADS-B
Tue 10:40:19 PM 36.5887 -82.1770 297° West 413 475 36,000  Level FlightAware ADS-B
Tue 10:40:50 PM 36.6145 -82.2406 297° West 412 474 36,000 -181 Level FlightAware ADS-B
Tue 10:43:05 PM 36.7295 -82.5303 296° West 420 483 35,500 -353 Descending FlightAware ADS-B
Tue 10:43:40 PM 36.7593 -82.6061 296° West 417 480 35,000 -896 Descending FlightAware ADS-B
Tue 10:44:12 PM 36.7863 -82.6730 297° West 419 482 34,500 -943 Descending FlightAware ADS-B
Tue 10:44:50 PM 36.8188 -82.7560 296° West 424 488 33,900 -1,029 Descending FlightAware ADS-B
Tue 10:45:22 PM 36.8466 -82.8262 296° West 424 488 33,300 -987 Descending FlightAware ADS-B
Tue 10:46:09 PM 36.8880 -82.9323 296° West 427 491 32,600 -987 Descending FlightAware ADS-B
Tue 10:46:41 PM 36.9158 -83.0038 296° West 433 498 32,000 -571 Descending FlightAware ADS-B
Tue 10:47:12 PM 36.9419 -83.0693 297° West 411 473 32,000  Level FlightAware ADS-B
Tue 10:47:42 PM 36.9679 -83.1369 296° West 428 493 32,000  Level FlightAware ADS-B
Tue 10:48:13 PM 36.9952 -83.2063 296° West 433 498 32,000  Level FlightAware ADS-B
Tue 10:48:44 PM 37.0220 -83.2760 296° West 432 497 32,000  Level FlightAware ADS-B
Tue 10:49:15 PM 37.0483 -83.3435 296° West 432 497 32,000  Level FlightAware ADS-B
Tue 10:49:45 PM 37.0748 -83.4112 296° West 433 498 32,000  Level FlightAware ADS-B
Tue 10:50:15 PM 37.1013 -83.4813 295° West 435 501 32,000  Level FlightAware ADS-B
Tue 10:50:46 PM 37.1277 -83.5494 296° West 435 501 32,000  Level FlightAware ADS-B
Tue 10:51:16 PM 37.1541 -83.6175 296° West 436 502 32,000  Level FlightAware ADS-B
Tue 10:51:46 PM 37.1807 -83.6881 295° West 437 503 32,000  Level FlightAware ADS-B
Tue 10:52:16 PM 37.2068 -83.7566 296° West 435 501 32,000  Level FlightAware ADS-B
Tue 10:52:50 PM 37.2362 -83.8337 296° West 433 498 32,000  Level FlightAware ADS-B
Tue 10:53:21 PM 37.2629 -83.9040 296° West 432 497 32,000 -632 Level FlightAware ADS-B
Tue 10:54:25 PM 37.3198 -84.0535 296° West 457 526 31,000 -1,882 Descending FlightAware ADS-B
Tue 10:55:03 PM 37.3536 -84.1421 296° West 458 527 28,800 -3,739 Descending FlightAware ADS-B
Tue 10:55:34 PM 37.3813 -84.2162 295° West 457 526 26,700 -3,672 Descending FlightAware ADS-B
Tue 10:56:10 PM 37.4135 -84.3020 295° West 458 527 24,700 -3,182 Descending FlightAware ADS-B
Tue 10:56:40 PM 37.4404 -84.3743 295° West 438 504 23,200 -3,000 Descending FlightAware ADS-B
Tue 10:57:10 PM 37.4658 -84.4423 295° West 427 491 21,700 -2,916 Descending FlightAware ADS-B
Tue 10:58:27 PM 37.5283 -84.6104 295° West 409 471 18,000 -2,600 Descending FlightAware ADS-B
Tue 10:59:10 PM 37.5542 -84.6828 295° West 405 466 16,500 -1,171 Descending Indianapolis Center
Tue 11:05:17 PM 37.9130 -85.3100 295° West 352 405 10,000 -958 Descending FlightAware ADS-B
Tue 11:05:57 PM 37.9480 -85.3700 307° West 354 407 10,000  Level FlightAware ADS-B
Tue 11:06:37 PM 37.9910 -85.4440 306° West 353 406 10,000  Level FlightAware ADS-B
Tue 11:06:52 PM 38.0000 -85.4720 292° West 342 394 10,000  Level FlightAware ADS-B
Tue 11:07:37 PM 38.0170 -85.5530 285° West 283 326 10,000 -257 Level FlightAware ADS-B
Tue 11:08:02 PM 38.0250 -85.5920 285° West 273 314 9,700 -873 Descending FlightAware ADS-B
Tue 11:08:32 PM 38.0340 -85.6380 284° West 267 307 9,200 -1,200 Descending FlightAware ADS-B
Tue 11:08:57 PM 38.0430 -85.6780 286° West 265 305 8,600 -1,500 Descending FlightAware ADS-B
Tue 11:09:32 PM 38.0540 -85.7270 286° West 263 303 7,700 -1,500 Descending FlightAware ADS-B
Tue 11:09:57 PM 38.0630 -85.7650 287° West 259 298 7,100 -1,527 Descending FlightAware ADS-B
Tue 11:10:27 PM 38.0750 -85.8080 290° West 259 298 6,300 -1,333 Descending FlightAware ADS-B
Tue 11:10:42 PM 38.0870 -85.8220 317° Northwest 257 296 6,100 -720 Descending FlightAware ADS-B
Tue 11:10:52 PM 38.0980 -85.8270 340° North 254 292 6,000 -150 Descending FlightAware ADS-B
Tue 11:11:22 PM 38.1320 -85.8350 350° North 216 249 6,000 -100 Level FlightAware ADS-B
Tue 11:11:52 PM 38.1620 -85.8430 348° North 217 250 5,900 -655 Descending FlightAware ADS-B
Tue 11:12:17 PM 38.1850 -85.8480 350° North 215 247 5,400 -1,200 Descending FlightAware ADS-B
Tue 11:12:47 PM 38.2150 -85.8550 350° North 216 249 4,800 -1,309 Descending FlightAware ADS-B
Tue 11:13:12 PM 38.2420 -85.8600 352° North 219 252 4,200 -873 Descending FlightAware ADS-B
Tue 11:13:42 PM 38.2720 -85.8650 353° North 219 252 4,000 -218 Descending FlightAware ADS-B
Tue 11:14:07 PM 38.2950 -85.8710 348° North 215 247 4,000  Level FlightAware ADS-B
Tue 11:14:37 PM 38.3250 -85.8790 348° North 216 249 4,000  Level FlightAware ADS-B
Tue 11:15:07 PM 38.3540 -85.8880 346° North 219 252 4,000 -327 Level FlightAware ADS-B
Tue 11:15:32 PM 38.3800 -85.8950 348° North 218 251 3,700 -982 Descending FlightAware ADS-B
Tue 11:16:02 PM 38.4100 -85.8800 21° North 266 306 3,100 -933 Descending FlightAware ADS-B
Tue 11:16:17 PM 38.4190 -85.8590 61° Northeast 269 310 3,000 -120 Descending FlightAware ADS-B
Tue 11:16:52 PM 38.4040 -85.8160 114° Southeast 209 241 3,000  Level FlightAware ADS-B
Tue 11:17:12 PM 38.3860 -85.8140 175° South 195 224 3,000  Level FlightAware ADS-B
Tue 11:17:37 PM 38.3660 -85.8080 167° South 200 230 3,000  Level FlightAware ADS-B
Tue 11:18:07 PM 38.3400 -85.7990 165° South 179 206 3,000 100 Level FlightAware ADS-B
Tue 11:18:37 PM 38.3160 -85.7910 165° South 179 206 3,100 -400 Climbing FlightAware ADS-B
Tue 11:19:07 PM 38.2920 -85.7840 167° South 174 200 2,600 -982 Descending FlightAware ADS-B
Tue 11:19:32 PM 38.2720 -85.7770 165° South 163 188 2,200 -764 Descending FlightAware ADS-B
Tue 11:20:02 PM 38.2520 -85.7710 167° South 137 158 1,900 -720 Descending FlightAware ADS-B
Tue 11:20:22 PM 38.2400 -85.7660 162° South 137 158 1,600 -764 Descending FlightAware ADS-B
Tue 11:20:57 PM 38.2190 -85.7590 165° South 140 161 1,200 -700 Descending FlightAware ADS-B
Tue 11:21:22 PM 38.2020 -85.7540 167° South 143 165 900 -764 Descending FlightAware ADS-B
Tue 11:21:52 PM 38.1830 -85.7470 164° South 146 168 500 -800 Descending FlightAware ADS-B

Login

Don't have an account? Register now (free) for customized features, flight alerts, and more!